Time;durP1;ratioP1;P1;durP2;ratioP2;P2;SDS_P1;SDS_P2;PMS_P1;PMS_P2;Temp;Humidity;BMP_temperature;BMP_pressure;BME280_temperature;BME280_humidity;BME280_pressure;Samples;Min_cycle;Max_cycle;Signal;HPM_P1;HPM_P2
2021/11/26 00:00:17;;;;;;;13.77;8.02;;;;;;;;;;5012600;28;20029;-49
2021/11/26 00:02:42;;;;;;;9.52;7.35;;;;;;;;;;5012140;28;20038;-48
2021/11/26 00:05:08;;;;;;;6.80;6.10;;;;;;;;;;5011852;28;20030;-51
2021/11/26 00:07:34;;;;;;;9.68;6.90;;;;;;;;;;5010577;28;20125;-48
2021/11/26 00:09:59;;;;;;;8.50;6.47;;;;;;;;;;5011084;28;20129;-47
2021/11/26 00:12:24;;;;;;;13.30;6.43;;;;;;;;;;5011903;28;20040;-48
2021/11/26 00:17:29;;;;;;;8.88;5.80;;;;;;;;;;5011772;28;20048;-56
2021/11/26 00:19:55;;;;;;;8.10;6.13;;;;;;;;;;5026716;28;20038;-53
2021/11/26 00:22:20;;;;;;;9.20;6.13;;;;;;;;;;5012415;28;20366;-52
2021/11/26 00:24:46;;;;;;;10.48;6.57;;;;;;;;;;5011812;28;20060;-52
2021/11/26 00:27:12;;;;;;;8.98;6.85;;;;;;;;;;5011676;28;20033;-53
2021/11/26 00:29:37;;;;;;;6.68;5.55;;;;;;;;;;5011197;28;20034;-53
2021/11/26 00:32:03;;;;;;;10.98;6.32;;;;;;;;;;5011833;28;20053;-55
2021/11/26 00:34:28;;;;;;;9.27;6.63;;;;;;;;;;5011043;28;20104;-55
2021/11/26 00:36:54;;;;;;;10.25;6.07;;;;;;;;;;5011514;28;20407;-56
2021/11/26 00:39:19;;;;;;;7.82;6.13;;;;;;;;;;5011593;28;20399;-55
2021/11/26 00:41:45;;;;;;;6.88;5.32;;;;;;;;;;5011638;28;20038;-55
2021/11/26 00:44:10;;;;;;;9.10;5.75;;;;;;;;;;5010712;28;20042;-54
2021/11/26 00:46:36;;;;;;;6.18;5.30;;;;;;;;;;5011313;28;20523;-55
2021/11/26 00:49:02;;;;;;;10.45;7.22;;;;;;;;;;5011020;28;20112;-54
2021/11/26 00:51:30;;;;;;;5.97;4.65;;;;;;;;;;5011499;28;20145;-54
2021/11/26 00:53:56;;;;;;;10.70;7.63;;;;;;;;;;5010891;28;20030;-55
2021/11/26 00:56:21;;;;;;;10.05;7.28;;;;;;;;;;5009417;28;20034;-54
2021/11/26 00:58:47;;;;;;;15.32;6.93;;;;;;;;;;5010794;28;20041;-53
2021/11/26 01:01:12;;;;;;;7.32;5.18;;;;;;;;;;5010325;28;20472;-55
2021/11/26 01:03:38;;;;;;;13.52;6.65;;;;;;;;;;5010142;28;20574;-55
2021/11/26 01:06:03;;;;;;;7.07;6.38;;;;;;;;;;5009059;28;20543;-55
2021/11/26 01:08:29;;;;;;;14.77;6.55;;;;;;;;;;5010907;28;20083;-55
2021/11/26 01:10:54;;;;;;;8.07;6.75;;;;;;;;;;5010968;28;20490;-55
2021/11/26 01:13:20;;;;;;;7.90;5.60;;;;;;;;;;5010222;28;20045;-54
2021/11/26 01:15:46;;;;;;;7.68;6.57;;;;;;;;;;5010767;28;20030;-55
2021/11/26 01:18:12;;;;;;;8.50;6.70;;;;;;;;;;5010297;28;20506;-55
2021/11/26 01:20:39;;;;;;;11.27;5.90;;;;;;;;;;5008765;28;20050;-55
2021/11/26 01:23:05;;;;;;;7.57;6.32;;;;;;;;;;5009911;28;20180;-55
2021/11/26 01:25:32;;;;;;;10.93;5.30;;;;;;;;;;5009217;28;20455;-55
2021/11/26 01:27:58;;;;;;;7.35;6.65;;;;;;;;;;5009880;28;20488;-54
2021/11/26 01:30:29;;;;;;;9.82;7.72;;;;;;;;;;5011099;28;20038;-54
2021/11/26 01:32:56;;;;;;;9.30;6.18;;;;;;;;;;5010173;28;20487;-52
2021/11/26 01:35:22;;;;;;;8.13;5.88;;;;;;;;;;5010155;28;20561;-54
2021/11/26 01:37:49;;;;;;;7.88;6.03;;;;;;;;;;5009909;28;20041;-53
2021/11/26 01:40:15;;;;;;;11.00;6.95;;;;;;;;;;5010003;28;20034;-54
2021/11/26 01:42:41;;;;;;;8.68;6.20;;;;;;;;;;5009608;28;20034;-54
2021/11/26 01:45:08;;;;;;;10.48;6.45;;;;;;;;;;5009385;28;20037;-55
2021/11/26 01:47:33;;;;;;;7.20;6.30;;;;;;;;;;5009837;28;20352;-55
2021/11/26 01:50:00;;;;;;;12.82;6.00;;;;;;;;;;5008277;28;20036;-51
2021/11/26 01:52:25;;;;;;;11.18;7.50;;;;;;;;;;5010719;28;20041;-55
2021/11/26 01:54:51;;;;;;;7.15;5.45;;;;;;;;;;5009783;28;20318;-55
2021/11/26 01:57:18;;;;;;;7.82;6.28;;;;;;;;;;5010055;28;20072;-56
2021/11/26 01:59:43;;;;;;;6.43;5.82;;;;;;;;;;5009152;28;20044;-55
2021/11/26 02:02:09;;;;;;;7.07;6.35;;;;;;;;;;5009145;28;20038;-54
2021/11/26 02:04:35;;;;;;;11.63;5.60;;;;;;;;;;5009466;28;20030;-55
2021/11/26 02:07:00;;;;;;;8.73;5.93;;;;;;;;;;5009629;28;20034;-55
2021/11/26 02:09:26;;;;;;;6.65;4.85;;;;;;;;;;5007197;28;20366;-53
2021/11/26 02:11:51;;;;;;;6.10;4.90;;;;;;;;;;5009038;28;20436;-52
2021/11/26 02:14:17;;;;;;;7.07;5.70;;;;;;;;;;5009721;28;20037;-54
2021/11/26 02:16:47;;;;;;;5.78;5.18;;;;;;;;;;5008372;28;20050;-55
2021/11/26 02:19:13;;;;;;;8.35;6.18;;;;;;;;;;5008217;28;20108;-54
2021/11/26 02:21:40;;;;;;;9.88;5.05;;;;;;;;;;5009725;28;20112;-55
2021/11/26 02:24:06;;;;;;;6.28;5.55;;;;;;;;;;5008785;28;20044;-54
2021/11/26 02:26:36;;;;;;;8.32;6.35;;;;;;;;;;5009022;28;20125;-54
2021/11/26 02:29:03;;;;;;;7.47;6.47;;;;;;;;;;5009184;28;20025;-54
2021/11/26 02:31:28;;;;;;;7.30;5.70;;;;;;;;;;5009723;28;20041;-54
2021/11/26 02:33:54;;;;;;;7.25;4.78;;;;;;;;;;5009525;28;20026;-54
2021/11/26 02:36:19;;;;;;;8.73;7.22;;;;;;;;;;5009480;28;20026;-55
2021/11/26 02:38:44;;;;;;;8.82;5.75;;;;;;;;;;5009131;28;20029;-54
2021/11/26 02:41:10;;;;;;;7.78;6.07;;;;;;;;;;5009471;28;20041;-53
2021/11/26 02:43:35;;;;;;;12.18;7.57;;;;;;;;;;5008371;28;20045;-56
2021/11/26 02:46:01;;;;;;;11.73;6.63;;;;;;;;;;5009775;28;20113;-55
2021/11/26 02:48:26;;;;;;;7.90;6.43;;;;;;;;;;5009339;28;20041;-53
2021/11/26 02:50:51;;;;;;;6.78;4.55;;;;;;;;;;5008178;28;20053;-54
2021/11/26 02:53:18;;;;;;;7.05;6.32;;;;;;;;;;5009766;28;20038;-55
2021/11/26 02:55:43;;;;;;;6.43;5.75;;;;;;;;;;5009011;28;20472;-56
2021/11/26 02:58:09;;;;;;;8.13;6.50;;;;;;;;;;5008619;28;20131;-56
2021/11/26 03:00:37;;;;;;;16.48;6.57;;;;;;;;;;5008555;28;20482;-55
2021/11/26 03:03:03;;;;;;;11.02;7.75;;;;;;;;;;5009236;28;20044;-55
2021/11/26 03:05:29;;;;;;;6.75;6.07;;;;;;;;;;5009066;28;20038;-55
2021/11/26 03:07:54;;;;;;;7.88;5.75;;;;;;;;;;5008854;28;20030;-54
2021/11/26 03:10:21;;;;;;;9.02;6.53;;;;;;;;;;5009346;28;20045;-55
2021/11/26 03:12:50;;;;;;;9.63;6.28;;;;;;;;;;5008956;28;20061;-52
2021/11/26 03:15:17;;;;;;;9.82;6.88;;;;;;;;;;5008888;28;20511;-54
2021/11/26 03:17:42;;;;;;;9.32;6.35;;;;;;;;;;5008990;28;20186;-55
2021/11/26 03:20:09;;;;;;;9.50;6.60;;;;;;;;;;5008772;28;20467;-55
2021/11/26 03:22:34;;;;;;;9.18;5.68;;;;;;;;;;5008303;28;20033;-54
2021/11/26 03:25:01;;;;;;;8.57;5.90;;;;;;;;;;5009030;28;20065;-54
2021/11/26 03:27:27;;;;;;;8.43;6.82;;;;;;;;;;5010289;28;20352;-55
2021/11/26 03:29:52;;;;;;;11.13;6.45;;;;;;;;;;5012445;28;20044;-54
2021/11/26 03:32:17;;;;;;;8.27;5.40;;;;;;;;;;5013082;28;20037;-50
2021/11/26 03:34:43;;;;;;;13.73;4.88;;;;;;;;;;5011958;28;20038;-55
2021/11/26 03:37:08;;;;;;;9.23;6.70;;;;;;;;;;5012776;28;20026;-55
2021/11/26 03:39:34;;;;;;;15.55;7.13;;;;;;;;;;5012584;28;20026;-54
2021/11/26 03:41:59;;;;;;;8.88;6.75;;;;;;;;;;5011883;28;20036;-55
2021/11/26 03:44:25;;;;;;;6.57;5.50;;;;;;;;;;5011964;28;20065;-53
2021/11/26 03:46:50;;;;;;;8.20;6.85;;;;;;;;;;5012740;28;20034;-53
2021/11/26 03:49:16;;;;;;;10.68;7.13;;;;;;;;;;5009539;28;20034;-54
2021/11/26 03:51:41;;;;;;;10.35;6.60;;;;;;;;;;5012578;28;20033;-55
2021/11/26 03:54:06;;;;;;;7.78;6.38;;;;;;;;;;5012370;28;20033;-55
2021/11/26 03:56:32;;;;;;;6.63;5.80;;;;;;;;;;5011405;28;20121;-55
2021/11/26 03:58:57;;;;;;;7.70;5.45;;;;;;;;;;5011585;28;20040;-55
2021/11/26 04:01:22;;;;;;;9.57;7.32;;;;;;;;;;5012323;28;20076;-55
2021/11/26 04:03:48;;;;;;;9.15;6.65;;;;;;;;;;5012314;28;20370;-56
2021/11/26 04:06:13;;;;;;;11.75;8.48;;;;;;;;;;5011845;28;20045;-54
2021/11/26 04:08:38;;;;;;;5.20;4.22;;;;;;;;;;5012136;28;20029;-54
2021/11/26 04:11:04;;;;;;;6.88;6.05;;;;;;;;;;5012405;28;20065;-54
2021/11/26 04:13:29;;;;;;;6.72;5.35;;;;;;;;;;5010916;28;20033;-55
2021/11/26 04:16:01;;;;;;;9.18;6.18;;;;;;;;;;5011612;28;20041;-54
2021/11/26 04:18:27;;;;;;;5.47;4.95;;;;;;;;;;5011590;28;20048;-54
2021/11/26 04:20:53;;;;;;;16.55;7.85;;;;;;;;;;5010808;28;20038;-54
2021/11/26 04:23:18;;;;;;;10.00;5.90;;;;;;;;;;5011141;28;20041;-55
2021/11/26 04:25:43;;;;;;;11.82;7.32;;;;;;;;;;5011679;28;20034;-56
2021/11/26 04:28:09;;;;;;;7.65;6.28;;;;;;;;;;5011432;28;20034;-54
2021/11/26 04:30:34;;;;;;;8.77;6.22;;;;;;;;;;5011756;28;20095;-55
2021/11/26 04:33:00;;;;;;;7.70;6.80;;;;;;;;;;5012018;28;20033;-54
2021/11/26 04:35:25;;;;;;;7.50;6.35;;;;;;;;;;5010860;28;20116;-54
2021/11/26 04:37:51;;;;;;;6.93;6.22;;;;;;;;;;5011311;28;20045;-54
2021/11/26 04:40:17;;;;;;;9.70;6.88;;;;;;;;;;5010665;28;20057;-55
2021/11/26 04:42:43;;;;;;;11.60;8.07;;;;;;;;;;5011420;28;20041;-55
2021/11/26 04:45:10;;;;;;;11.65;7.78;;;;;;;;;;5011342;28;20026;-54
2021/11/26 04:47:36;;;;;;;10.05;6.43;;;;;;;;;;5010756;28;20066;-55
2021/11/26 04:50:04;;;;;;;7.32;6.30;;;;;;;;;;5010864;28;20040;-56
2021/11/26 04:52:30;;;;;;;9.25;6.75;;;;;;;;;;5010678;28;20041;-55
2021/11/26 04:54:55;;;;;;;7.32;6.20;;;;;;;;;;5010558;28;20030;-54
2021/11/26 04:57:21;;;;;;;9.15;6.30;;;;;;;;;;5011180;28;20061;-55
2021/11/26 04:59:47;;;;;;;8.52;6.18;;;;;;;;;;5010032;28;20044;-55
2021/11/26 05:02:12;;;;;;;6.82;5.82;;;;;;;;;;5011614;28;20034;-55
2021/11/26 05:04:37;;;;;;;7.65;6.28;;;;;;;;;;5010682;28;20030;-55
2021/11/26 05:07:03;;;;;;;12.10;7.45;;;;;;;;;;5010195;28;20037;-55
2021/11/26 05:09:29;;;;;;;8.15;7.28;;;;;;;;;;5009999;28;20570;-55
2021/11/26 05:11:55;;;;;;;11.10;8.18;;;;;;;;;;5010629;28;20108;-55
2021/11/26 05:14:23;;;;;;;9.10;6.10;;;;;;;;;;5010313;28;20053;-55
2021/11/26 05:16:49;;;;;;;9.95;7.00;;;;;;;;;;5018144;28;20065;-55
2021/11/26 05:19:14;;;;;;;8.32;7.20;;;;;;;;;;5010299;28;20037;-55
2021/11/26 05:21:40;;;;;;;7.60;5.72;;;;;;;;;;5009966;28;20442;-55
2021/11/26 05:24:05;;;;;;;6.90;6.05;;;;;;;;;;5010516;28;20038;-55
2021/11/26 05:26:31;;;;;;;13.10;6.97;;;;;;;;;;5010788;28;20042;-54
2021/11/26 05:28:56;;;;;;;7.82;7.03;;;;;;;;;;5010167;28;20042;-55
2021/11/26 05:31:22;;;;;;;9.30;7.25;;;;;;;;;;5010964;28;20041;-54
2021/11/26 05:33:48;;;;;;;14.80;6.75;;;;;;;;;;5010660;28;20040;-55
2021/11/26 05:36:14;;;;;;;13.10;7.45;;;;;;;;;;5010016;28;20121;-55
2021/11/26 05:38:39;;;;;;;8.65;5.88;;;;;;;;;;5009187;28;20120;-53
2021/11/26 05:41:05;;;;;;;9.93;7.72;;;;;;;;;;5010777;28;20044;-54
2021/11/26 05:43:30;;;;;;;10.00;6.80;;;;;;;;;;5010860;28;20636;-54
2021/11/26 05:45:55;;;;;;;8.02;6.03;;;;;;;;;;5009881;28;20022;-54
2021/11/26 05:48:21;;;;;;;9.40;6.22;;;;;;;;;;5010390;28;20456;-55
2021/11/26 05:50:46;;;;;;;9.25;6.63;;;;;;;;;;5009070;28;20096;-56
2021/11/26 05:53:12;;;;;;;18.98;6.25;;;;;;;;;;5008690;28;20119;-55
2021/11/26 05:55:37;;;;;;;8.90;6.18;;;;;;;;;;5008936;28;20052;-55
2021/11/26 05:58:04;;;;;;;6.05;5.30;;;;;;;;;;5009803;28;20139;-54
2021/11/26 06:00:34;;;;;;;12.45;8.48;;;;;;;;;;5010377;28;20037;-55
2021/11/26 06:03:01;;;;;;;14.40;6.90;;;;;;;;;;5010356;28;20459;-53
2021/11/26 06:05:26;;;;;;;7.35;6.55;;;;;;;;;;5009042;28;20104;-51
2021/11/26 06:07:52;;;;;;;8.82;5.95;;;;;;;;;;5009330;28;20108;-55
2021/11/26 06:10:18;;;;;;;7.63;6.18;;;;;;;;;;5008678;28;20132;-52
2021/11/26 06:12:46;;;;;;;9.68;6.93;;;;;;;;;;5010155;28;20033;-55
2021/11/26 06:15:13;;;;;;;7.72;5.85;;;;;;;;;;5009716;28;20111;-54
2021/11/26 06:17:40;;;;;;;7.35;5.22;;;;;;;;;;5009715;28;20033;-55
2021/11/26 06:20:06;;;;;;;13.40;6.75;;;;;;;;;;5008333;28;20456;-52
2021/11/26 06:22:32;;;;;;;10.48;6.05;;;;;;;;;;5009537;28;20030;-53
2021/11/26 06:24:57;;;;;;;11.82;7.10;;;;;;;;;;5009891;28;20594;-55
2021/11/26 06:27:23;;;;;;;8.30;6.47;;;;;;;;;;5009793;28;20065;-53
2021/11/26 06:29:48;;;;;;;6.32;5.70;;;;;;;;;;5009309;28;20026;-55
2021/11/26 06:32:14;;;;;;;10.43;6.40;;;;;;;;;;5008854;28;20152;-55
2021/11/26 06:34:39;;;;;;;9.95;6.85;;;;;;;;;;5008046;28;20139;-55
2021/11/26 06:37:05;;;;;;;9.70;7.18;;;;;;;;;;5009230;28;20033;-55
2021/11/26 06:39:30;;;;;;;8.45;7.03;;;;;;;;;;5009233;28;20052;-56
2021/11/26 06:41:56;;;;;;;11.75;6.05;;;;;;;;;;5008838;28;20462;-58
2021/11/26 06:44:21;;;;;;;10.15;7.35;;;;;;;;;;5007907;28;20025;-55
2021/11/26 06:46:47;;;;;;;13.07;6.43;;;;;;;;;;5008593;28;20108;-55
2021/11/26 06:49:12;;;;;;;8.95;5.68;;;;;;;;;;5008241;28;20069;-55
2021/11/26 06:51:38;;;;;;;8.32;6.28;;;;;;;;;;5009118;28;20065;-54
2021/11/26 06:54:04;;;;;;;9.75;7.45;;;;;;;;;;5008077;28;20056;-53
2021/11/26 06:56:29;;;;;;;7.35;5.38;;;;;;;;;;5009584;28;20432;-57
2021/11/26 06:58:58;;;;;;;10.55;7.43;;;;;;;;;;5009382;28;20030;-53
2021/11/26 07:01:24;;;;;;;12.15;6.55;;;;;;;;;;5010428;28;20034;-53
2021/11/26 07:03:50;;;;;;;8.07;6.25;;;;;;;;;;5015739;28;20096;-54
2021/11/26 07:06:15;;;;;;;8.48;6.57;;;;;;;;;;5015359;28;20431;-53
2021/11/26 07:08:41;;;;;;;8.00;6.15;;;;;;;;;;5015840;28;20125;-52
2021/11/26 07:11:06;;;;;;;8.70;6.25;;;;;;;;;;5015891;28;20444;-56
2021/11/26 07:13:31;;;;;;;9.77;6.90;;;;;;;;;;5014936;28;20054;-56
2021/11/26 07:15:57;;;;;;;6.63;5.15;;;;;;;;;;5015786;28;20084;-51
2021/11/26 07:18:23;;;;;;;10.05;7.57;;;;;;;;;;5015664;28;20508;-56
2021/11/26 07:20:48;;;;;;;9.85;7.30;;;;;;;;;;5014902;28;20074;-53
2021/11/26 07:23:14;;;;;;;8.75;7.55;;;;;;;;;;5015648;28;20376;-53
2021/11/26 07:25:40;;;;;;;7.80;6.68;;;;;;;;;;5015531;28;20048;-56
2021/11/26 07:28:06;;;;;;;11.55;7.65;;;;;;;;;;5015223;28;20056;-54
2021/11/26 07:30:31;;;;;;;9.43;7.18;;;;;;;;;;5015865;28;20026;-53
2021/11/26 07:32:56;;;;;;;14.77;8.90;;;;;;;;;;5015994;28;20034;-53
2021/11/26 07:35:22;;;;;;;10.25;7.97;;;;;;;;;;5014086;28;20463;-51
2021/11/26 07:37:47;;;;;;;9.95;6.60;;;;;;;;;;5015565;28;20034;-53
2021/11/26 07:40:13;;;;;;;8.00;5.72;;;;;;;;;;5015657;28;20046;-54
2021/11/26 07:42:39;;;;;;;10.13;6.90;;;;;;;;;;5015538;28;20044;-54
2021/11/26 07:45:06;;;;;;;7.95;6.07;;;;;;;;;;5015160;28;20037;-54
2021/11/26 07:47:32;;;;;;;7.35;6.07;;;;;;;;;;5015264;28;20034;-52
2021/11/26 07:49:57;;;;;;;9.15;4.75;;;;;;;;;;5013804;28;20045;-54
2021/11/26 07:52:23;;;;;;;7.97;5.85;;;;;;;;;;5014562;28;20474;-53
2021/11/26 07:54:48;;;;;;;11.80;7.38;;;;;;;;;;5015426;28;20038;-53
2021/11/26 07:57:14;;;;;;;9.45;6.32;;;;;;;;;;5015193;28;20044;-51
2021/11/26 07:59:39;;;;;;;9.15;6.20;;;;;;;;;;5014736;28;20046;-50
2021/11/26 08:02:05;;;;;;;10.32;6.32;;;;;;;;;;5015682;28;20042;-52
2021/11/26 08:04:30;;;;;;;7.28;6.35;;;;;;;;;;5013861;28;20045;-51
2021/11/26 08:06:56;;;;;;;8.15;5.75;;;;;;;;;;5015329;28;20139;-55
2021/11/26 08:09:22;;;;;;;10.57;7.20;;;;;;;;;;5015355;28;20128;-54
2021/11/26 08:11:49;;;;;;;8.43;6.68;;;;;;;;;;5014247;28;20065;-52
2021/11/26 08:14:15;;;;;;;6.97;6.22;;;;;;;;;;5012231;28;20114;-50
2021/11/26 08:16:41;;;;;;;6.38;5.28;;;;;;;;;;5011442;28;20040;-54
2021/11/26 08:19:07;;;;;;;7.60;6.28;;;;;;;;;;5011522;28;20038;-52
2021/11/26 08:21:33;;;;;;;9.90;6.45;;;;;;;;;;5010804;28;20367;-53
2021/11/26 08:24:03;;;;;;;6.25;4.78;;;;;;;;;;5011123;28;20038;-54
2021/11/26 08:26:29;;;;;;;9.63;7.30;;;;;;;;;;5012149;28;20052;-54
2021/11/26 08:28:54;;;;;;;10.02;7.35;;;;;;;;;;5007237;28;20048;-52
2021/11/26 08:31:20;;;;;;;8.80;5.93;;;;;;;;;;5011081;28;20112;-55
2021/11/26 08:33:45;;;;;;;9.85;6.35;;;;;;;;;;5008191;28;20367;-54
2021/11/26 08:36:10;;;;;;;7.85;6.25;;;;;;;;;;5009875;28;20441;-54
2021/11/26 08:38:36;;;;;;;7.28;5.03;;;;;;;;;;5004499;28;20030;-54
2021/11/26 08:41:01;;;;;;;10.45;7.00;;;;;;;;;;5007525;28;20053;-55
2021/11/26 08:43:27;;;;;;;9.32;6.50;;;;;;;;;;5009907;28;20124;-55
2021/11/26 08:45:53;;;;;;;7.43;5.57;;;;;;;;;;5008192;28;20409;-54
2021/11/26 08:48:18;;;;;;;6.82;5.47;;;;;;;;;;5009797;28;20092;-55
2021/11/26 08:50:44;;;;;;;7.70;6.40;;;;;;;;;;5006881;28;20341;-56
2021/11/26 08:53:11;;;;;;;6.68;5.97;;;;;;;;;;5009621;28;20046;-54
2021/11/26 08:55:38;;;;;;;7.32;6.00;;;;;;;;;;5008258;28;20349;-55
2021/11/26 08:58:04;;;;;;;7.60;6.85;;;;;;;;;;5010696;28;20030;-56
2021/11/26 09:00:33;;;;;;;8.55;5.60;;;;;;;;;;5007994;28;20036;-54
2021/11/26 09:03:00;;;;;;;9.18;6.43;;;;;;;;;;5011190;28;20763;-50
2021/11/26 09:05:26;;;;;;;7.75;5.75;;;;;;;;;;5009524;28;20088;-51
2021/11/26 09:07:57;;;;;;;7.35;6.28;;;;;;;;;;5011006;28;20065;-54
2021/11/26 09:10:23;;;;;;;6.60;5.70;;;;;;;;;;5010838;28;20674;-54
2021/11/26 09:12:48;;;;;;;6.07;5.20;;;;;;;;;;5010431;28;20053;-53
2021/11/26 09:15:14;;;;;;;5.88;4.60;;;;;;;;;;5009597;28;20132;-51
2021/11/26 09:17:40;;;;;;;7.15;6.07;;;;;;;;;;5009868;28;20026;-54
2021/11/26 09:20:06;;;;;;;7.95;6.65;;;;;;;;;;5009563;28;20037;-54
2021/11/26 09:22:32;;;;;;;7.45;6.68;;;;;;;;;;5010116;28;20038;-53
2021/11/26 09:24:58;;;;;;;11.55;6.75;;;;;;;;;;5010223;28;20105;-54
2021/11/26 09:27:23;;;;;;;8.60;7.47;;;;;;;;;;5008227;28;20060;-51
2021/11/26 09:29:49;;;;;;;7.40;5.45;;;;;;;;;;5010491;28;20125;-50
2021/11/26 09:32:14;;;;;;;8.95;5.28;;;;;;;;;;5010597;28;20108;-54
2021/11/26 09:34:40;;;;;;;10.35;7.88;;;;;;;;;;5008922;28;20065;-54
2021/11/26 09:37:05;;;;;;;8.02;5.72;;;;;;;;;;5010466;28;20072;-51
2021/11/26 09:39:31;;;;;;;7.28;6.22;;;;;;;;;;5009216;28;20029;-53
2021/11/26 09:41:56;;;;;;;8.77;6.88;;;;;;;;;;5006190;28;20100;-52
2021/11/26 09:44:23;;;;;;;6.40;5.35;;;;;;;;;;5008694;28;20037;-52
2021/11/26 09:46:51;;;;;;;12.45;7.00;;;;;;;;;;5008494;28;20531;-51
2021/11/26 09:49:17;;;;;;;6.82;5.55;;;;;;;;;;5008164;28;20037;-50
2021/11/26 09:51:42;;;;;;;7.63;5.10;;;;;;;;;;5008272;28;20034;-53
2021/11/26 09:54:08;;;;;;;5.90;5.30;;;;;;;;;;5008252;28;20537;-54
2021/11/26 09:56:34;;;;;;;12.75;6.32;;;;;;;;;;5006091;28;20030;-56
2021/11/26 09:59:00;;;;;;;7.20;5.55;;;;;;;;;;5007270;28;20100;-56
2021/11/26 10:01:26;;;;;;;8.32;5.97;;;;;;;;;;5006868;28;20049;-55
2021/11/26 10:03:53;;;;;;;7.65;6.38;;;;;;;;;;5007860;28;20041;-55
2021/11/26 10:06:40;;;;;;;9.85;7.10;;;;;;;;;;5008401;28;20030;-50
2021/11/26 10:09:13;;;;;;;8.45;6.00;;;;;;;;;;5007779;28;20041;-55
2021/11/26 10:11:51;;;;;;;7.30;5.88;;;;;;;;;;5001907;28;20793;-55
2021/11/26 10:14:23;;;;;;;6.97;5.95;;;;;;;;;;5005958;28;20041;-55
2021/11/26 10:16:54;;;;;;;6.88;5.55;;;;;;;;;;5005328;28;20518;-55
2021/11/26 10:19:38;;;;;;;7.38;4.97;;;;;;;;;;5003991;28;20052;-54
2021/11/26 10:22:22;;;;;;;7.43;5.50;;;;;;;;;;5006702;28;20045;-55
2021/11/26 10:25:18;;;;;;;7.93;5.90;;;;;;;;;;5009381;28;20022;-55
2021/11/26 10:27:57;;;;;;;9.70;6.72;;;;;;;;;;5004921;28;20037;-54
2021/11/26 10:30:30;;;;;;;6.25;5.25;;;;;;;;;;5008063;28;20124;-55
2021/11/26 10:33:04;;;;;;;10.82;5.80;;;;;;;;;;5008780;28;20459;-54
2021/11/26 10:35:34;;;;;;;7.78;5.82;;;;;;;;;;5008570;28;20037;-54
2021/11/26 10:38:09;;;;;;;7.60;5.53;;;;;;;;;;5007761;28;20471;-54
2021/11/26 10:40:38;;;;;;;6.22;5.15;;;;;;;;;;5009181;28;20037;-49
2021/11/26 10:43:11;;;;;;;7.18;6.20;;;;;;;;;;5008025;28;20082;-47
2021/11/26 10:51:08;;;;;;;12.75;6.53;;;;;;;;;;5008101;28;20038;-54
2021/11/26 10:59:04;;;;;;;7.85;6.45;;;;;;;;;;5008174;28;20042;-54
2021/11/26 11:01:40;;;;;;;11.55;6.80;;;;;;;;;;5007680;28;20474;-54
2021/11/26 11:04:18;;;;;;;7.93;6.28;;;;;;;;;;5008140;28;20034;-55
2021/11/26 11:06:44;;;;;;;11.00;7.25;;;;;;;;;;5007348;28;20041;-54
2021/11/26 11:09:11;;;;;;;7.63;6.10;;;;;;;;;;5008665;28;20037;-55
2021/11/26 11:11:51;;;;;;;8.25;5.97;;;;;;;;;;5008371;28;20579;-55
2021/11/26 11:14:21;;;;;;;8.25;6.57;;;;;;;;;;5007214;28;20108;-52
2021/11/26 11:16:48;;;;;;;7.85;7.00;;;;;;;;;;5008314;28;20045;-51
2021/11/26 11:19:14;;;;;;;9.45;6.90;;;;;;;;;;5007827;28;20034;-54
2021/11/26 11:21:39;;;;;;;9.10;6.85;;;;;;;;;;5008490;28;20048;-53
2021/11/26 11:24:06;;;;;;;6.80;5.95;;;;;;;;;;5006446;28;20030;-54
2021/11/26 11:26:31;;;;;;;7.45;5.80;;;;;;;;;;5005422;28;20022;-54
2021/11/26 11:28:57;;;;;;;8.13;6.43;;;;;;;;;;5006456;28;20122;-53
2021/11/26 11:31:23;;;;;;;7.82;6.43;;;;;;;;;;5006954;28;20490;-53
2021/11/26 11:33:50;;;;;;;9.13;7.20;;;;;;;;;;5006852;28;20026;-53
2021/11/26 11:36:16;;;;;;;13.02;7.18;;;;;;;;;;5007026;28;20076;-54
2021/11/26 11:38:41;;;;;;;7.22;6.25;;;;;;;;;;5004277;28;20038;-54
2021/11/26 11:41:09;;;;;;;7.30;6.15;;;;;;;;;;5007267;28;20448;-54
2021/11/26 11:43:47;;;;;;;6.43;5.63;;;;;;;;;;5005548;28;20075;-55
2021/11/26 11:46:15;;;;;;;14.07;7.63;;;;;;;;;;5007297;28;20037;-55
2021/11/26 11:48:48;;;;;;;9.70;6.82;;;;;;;;;;5009902;28;20487;-53
2021/11/26 11:51:32;;;;;;;11.05;5.93;;;;;;;;;;5010432;28;20057;-54
2021/11/26 11:54:07;;;;;;;8.48;6.95;;;;;;;;;;5012616;28;20053;-54
2021/11/26 11:56:45;;;;;;;10.57;7.30;;;;;;;;;;5012134;28;20038;-52
2021/11/26 11:59:24;;;;;;;9.07;5.97;;;;;;;;;;5011870;28;20069;-52
2021/11/26 12:01:49;;;;;;;9.73;7.50;;;;;;;;;;5011301;28;20026;-52
2021/11/26 12:04:17;;;;;;;7.85;6.22;;;;;;;;;;5010564;28;20352;-51
2021/11/26 12:06:45;;;;;;;11.95;8.85;;;;;;;;;;5008280;28;20336;-50
2021/11/26 12:09:27;;;;;;;7.60;6.00;;;;;;;;;;5012058;28;20036;-54
2021/11/26 12:12:14;;;;;;;10.27;7.93;;;;;;;;;;5010541;28;20037;-51
2021/11/26 12:14:51;;;;;;;9.02;5.47;;;;;;;;;;5010625;28;20053;-54
2021/11/26 12:17:32;;;;;;;7.80;6.43;;;;;;;;;;5011242;28;20065;-54
2021/11/26 12:20:10;;;;;;;8.10;6.80;;;;;;;;;;5011460;28;20072;-54
2021/11/26 12:22:44;;;;;;;12.45;6.65;;;;;;;;;;5011720;28;20051;-54
2021/11/26 12:25:45;;;;;;;10.15;7.25;;;;;;;;;;5010592;28;20033;-51
2021/11/26 12:28:22;;;;;;;6.03;5.40;;;;;;;;;;5011228;28;20061;-52
2021/11/26 12:31:05;;;;;;;9.38;6.88;;;;;;;;;;5009063;28;20057;-53
2021/11/26 12:33:31;;;;;;;8.80;6.25;;;;;;;;;;5010679;28;20929;-52
2021/11/26 12:35:58;;;;;;;7.72;6.95;;;;;;;;;;5011014;28;20081;-51
2021/11/26 12:38:42;;;;;;;10.52;6.72;;;;;;;;;;5007916;28;20707;-53
2021/11/26 12:41:12;;;;;;;10.27;7.15;;;;;;;;;;5010575;28;20371;-53
2021/11/26 12:43:40;;;;;;;13.27;8.13;;;;;;;;;;5009076;28;20069;-55
2021/11/26 12:46:05;;;;;;;10.60;7.18;;;;;;;;;;5011083;28;20284;-55
2021/11/26 12:48:35;;;;;;;7.40;6.35;;;;;;;;;;5010858;28;20083;-53
2021/11/26 12:51:04;;;;;;;6.45;5.80;;;;;;;;;;5009986;28;20048;-55
2021/11/26 12:53:32;;;;;;;8.43;7.57;;;;;;;;;;5011121;28;20049;-51
2021/11/26 12:56:01;;;;;;;8.23;6.63;;;;;;;;;;5010758;28;20034;-54
2021/11/26 12:58:31;;;;;;;7.10;6.28;;;;;;;;;;5010898;28;20427;-54
2021/11/26 13:00:59;;;;;;;7.90;6.60;;;;;;;;;;5007348;28;20061;-51
2021/11/26 13:03:30;;;;;;;9.20;7.63;;;;;;;;;;5010649;28;20034;-52
2021/11/26 13:05:59;;;;;;;5.45;4.85;;;;;;;;;;5010314;28;20055;-53
2021/11/26 13:08:24;;;;;;;17.92;7.57;;;;;;;;;;5010853;28;20048;-51
2021/11/26 13:10:50;;;;;;;11.38;7.47;;;;;;;;;;5010766;28;20053;-54
2021/11/26 13:13:19;;;;;;;9.40;6.20;;;;;;;;;;5009920;28;20105;-54
2021/11/26 13:15:44;;;;;;;9.20;7.50;;;;;;;;;;5009558;28;20121;-50
2021/11/26 13:18:09;;;;;;;7.50;6.78;;;;;;;;;;5010850;28;20501;-54
2021/11/26 13:20:42;;;;;;;9.20;7.03;;;;;;;;;;5010485;28;20037;-51
2021/11/26 13:23:12;;;;;;;8.40;6.82;;;;;;;;;;5010757;28;20034;-53
2021/11/26 13:25:50;;;;;;;12.80;7.35;;;;;;;;;;5006057;28;20133;-53
2021/11/26 13:28:27;;;;;;;9.10;7.30;;;;;;;;;;5007232;28;20033;-55
2021/11/26 13:30:54;;;;;;;9.23;7.22;;;;;;;;;;5007143;28;20467;-53
2021/11/26 13:33:23;;;;;;;10.60;8.10;;;;;;;;;;5008957;28;20038;-54
2021/11/26 13:35:51;;;;;;;9.23;8.10;;;;;;;;;;5009667;28;20038;-55
2021/11/26 13:38:24;;;;;;;17.40;9.13;;;;;;;;;;5010766;28;20041;-55
2021/11/26 13:40:52;;;;;;;10.63;6.80;;;;;;;;;;5011098;28;20388;-55
2021/11/26 13:43:26;;;;;;;7.72;6.75;;;;;;;;;;5009266;28;20088;-54
2021/11/26 13:46:03;;;;;;;11.95;7.22;;;;;;;;;;5010272;28;20108;-56
2021/11/26 13:48:28;;;;;;;8.57;7.28;;;;;;;;;;5010051;28;20037;-55
2021/11/26 13:50:55;;;;;;;8.30;6.85;;;;;;;;;;5009852;28;20034;-55
2021/11/26 13:53:21;;;;;;;8.98;6.97;;;;;;;;;;5009235;28;20049;-53
2021/11/26 13:55:49;;;;;;;10.20;8.07;;;;;;;;;;5010130;28;20037;-55
2021/11/26 13:58:15;;;;;;;7.93;6.72;;;;;;;;;;5010569;28;20475;-54
2021/11/26 14:00:49;;;;;;;7.07;6.38;;;;;;;;;;5009393;28;20128;-52
2021/11/26 14:03:27;;;;;;;8.13;6.93;;;;;;;;;;5009728;28;20108;-49
2021/11/26 14:05:52;;;;;;;14.95;6.85;;;;;;;;;;4997782;28;20030;-48
2021/11/26 14:08:18;;;;;;;14.15;9.93;;;;;;;;;;5009444;28;20474;-53
2021/11/26 14:10:56;;;;;;;9.63;7.18;;;;;;;;;;5008636;28;20096;-47
2021/11/26 14:13:25;;;;;;;16.10;10.38;;;;;;;;;;5007585;28;20032;-47
2021/11/26 14:16:01;;;;;;;9.15;6.90;;;;;;;;;;5009817;28;20065;-47
2021/11/26 14:18:27;;;;;;;10.45;7.65;;;;;;;;;;5009261;28;20029;-51
2021/11/26 14:21:02;;;;;;;8.93;6.47;;;;;;;;;;5009390;28;20120;-47
2021/11/26 14:23:27;;;;;;;12.52;7.22;;;;;;;;;;5009237;28;20041;-56
2021/11/26 14:25:56;;;;;;;8.40;7.53;;;;;;;;;;5009045;28;20037;-56
2021/11/26 14:28:22;;;;;;;13.80;8.13;;;;;;;;;;5008182;28;20096;-55
2021/11/26 14:30:48;;;;;;;9.55;6.82;;;;;;;;;;5009576;28;20038;-51
2021/11/26 14:33:17;;;;;;;9.35;6.55;;;;;;;;;;5009835;28;20096;-51
2021/11/26 14:35:48;;;;;;;12.57;7.45;;;;;;;;;;5008695;28;20113;-50
2021/11/26 14:38:17;;;;;;;11.98;8.05;;;;;;;;;;5009474;28;20042;-47
2021/11/26 14:40:44;;;;;;;12.73;8.23;;;;;;;;;;5008922;28;20033;-50
2021/11/26 14:43:15;;;;;;;9.15;8.02;;;;;;;;;;5008881;28;20092;-51
2021/11/26 14:45:48;;;;;;;9.23;7.78;;;;;;;;;;5009517;28;20491;-47
2021/11/26 14:48:32;;;;;;;9.30;7.40;;;;;;;;;;5009108;28;20094;-50
2021/11/26 14:51:12;;;;;;;9.90;7.82;;;;;;;;;;5009039;28;20511;-49
2021/11/26 14:53:38;;;;;;;10.32;7.03;;;;;;;;;;5008557;28;20361;-53